sensor_id;sensor_type;location;lat;lon;timestamp;P1;durP1;ratioP1;P2;durP2;ratioP2
3941;SDS011;1985;48.592;8.850;2024-02-28T00:01:51;29.23;;;15.90;;
3941;SDS011;1985;48.592;8.850;2024-02-28T00:04:18;31.33;;;14.55;;
3941;SDS011;1985;48.592;8.850;2024-02-28T00:06:44;29.13;;;14.60;;
3941;SDS011;1985;48.592;8.850;2024-02-28T00:09:11;30.70;;;14.27;;
3941;SDS011;1985;48.592;8.850;2024-02-28T00:11:42;27.80;;;14.07;;
3941;SDS011;1985;48.592;8.850;2024-02-28T00:14:12;30.17;;;14.03;;
3941;SDS011;1985;48.592;8.850;2024-02-28T00:16:41;30.17;;;15.80;;
3941;SDS011;1985;48.592;8.850;2024-02-28T00:19:08;31.07;;;15.70;;
3941;SDS011;1985;48.592;8.850;2024-02-28T00:21:34;31.83;;;16.00;;
3941;SDS011;1985;48.592;8.850;2024-02-28T00:24:00;29.57;;;14.70;;
3941;SDS011;1985;48.592;8.850;2024-02-28T00:26:25;34.47;;;15.73;;
3941;SDS011;1985;48.592;8.850;2024-02-28T00:28:51;33.83;;;16.27;;
3941;SDS011;1985;48.592;8.850;2024-02-28T00:31:16;32.33;;;15.80;;
3941;SDS011;1985;48.592;8.850;2024-02-28T00:33:42;27.77;;;13.45;;
3941;SDS011;1985;48.592;8.850;2024-02-28T00:36:08;29.97;;;14.50;;
3941;SDS011;1985;48.592;8.850;2024-02-28T00:38:33;30.83;;;15.07;;
3941;SDS011;1985;48.592;8.850;2024-02-28T00:40:59;28.57;;;14.40;;
3941;SDS011;1985;48.592;8.850;2024-02-28T00:43:25;28.43;;;14.33;;
3941;SDS011;1985;48.592;8.850;2024-02-28T00:45:50;28.98;;;14.55;;
3941;SDS011;1985;48.592;8.850;2024-02-28T00:48:16;31.70;;;14.47;;
3941;SDS011;1985;48.592;8.850;2024-02-28T00:50:41;34.20;;;15.18;;
3941;SDS011;1985;48.592;8.850;2024-02-28T00:53:07;30.50;;;15.10;;
3941;SDS011;1985;48.592;8.850;2024-02-28T00:55:33;30.20;;;14.45;;
3941;SDS011;1985;48.592;8.850;2024-02-28T00:57:59;32.72;;;14.70;;
3941;SDS011;1985;48.592;8.850;2024-02-28T01:00:24;31.70;;;15.80;;
3941;SDS011;1985;48.592;8.850;2024-02-28T01:02:50;31.63;;;15.63;;
3941;SDS011;1985;48.592;8.850;2024-02-28T01:05:15;32.90;;;16.27;;
3941;SDS011;1985;48.592;8.850;2024-02-28T01:07:41;31.00;;;15.30;;
3941;SDS011;1985;48.592;8.850;2024-02-28T01:10:07;31.63;;;15.47;;
3941;SDS011;1985;48.592;8.850;2024-02-28T01:12:32;28.80;;;14.80;;
3941;SDS011;1985;48.592;8.850;2024-02-28T01:14:58;29.90;;;15.30;;
3941;SDS011;1985;48.592;8.850;2024-02-28T01:17:24;35.50;;;16.60;;
3941;SDS011;1985;48.592;8.850;2024-02-28T01:19:49;31.42;;;16.52;;
3941;SDS011;1985;48.592;8.850;2024-02-28T01:22:15;29.43;;;15.60;;
3941;SDS011;1985;48.592;8.850;2024-02-28T01:24:41;33.67;;;15.45;;
3941;SDS011;1985;48.592;8.850;2024-02-28T01:27:06;31.70;;;15.60;;
3941;SDS011;1985;48.592;8.850;2024-02-28T01:29:32;30.40;;;15.40;;
3941;SDS011;1985;48.592;8.850;2024-02-28T01:31:58;35.05;;;16.60;;
3941;SDS011;1985;48.592;8.850;2024-02-28T01:34:23;38.10;;;16.77;;
3941;SDS011;1985;48.592;8.850;2024-02-28T01:36:49;36.55;;;17.20;;
3941;SDS011;1985;48.592;8.850;2024-02-28T01:39:14;32.47;;;15.60;;
3941;SDS011;1985;48.592;8.850;2024-02-28T01:41:40;33.42;;;16.05;;
3941;SDS011;1985;48.592;8.850;2024-02-28T01:44:08;32.78;;;15.48;;
3941;SDS011;1985;48.592;8.850;2024-02-28T01:46:34;30.40;;;15.53;;
3941;SDS011;1985;48.592;8.850;2024-02-28T01:49:00;32.03;;;15.80;;
3941;SDS011;1985;48.592;8.850;2024-02-28T01:51:26;30.40;;;15.87;;
3941;SDS011;1985;48.592;8.850;2024-02-28T01:53:52;30.05;;;15.50;;
3941;SDS011;1985;48.592;8.850;2024-02-28T01:56:19;30.90;;;15.10;;
3941;SDS011;1985;48.592;8.850;2024-02-28T01:58:47;31.88;;;15.45;;
3941;SDS011;1985;48.592;8.850;2024-02-28T02:01:14;32.88;;;15.85;;
3941;SDS011;1985;48.592;8.850;2024-02-28T02:03:42;30.77;;;16.77;;
3941;SDS011;1985;48.592;8.850;2024-02-28T02:06:11;31.95;;;15.05;;
3941;SDS011;1985;48.592;8.850;2024-02-28T02:08:37;30.73;;;15.10;;
3941;SDS011;1985;48.592;8.850;2024-02-28T02:11:04;30.80;;;15.35;;
3941;SDS011;1985;48.592;8.850;2024-02-28T02:13:31;31.33;;;15.82;;
3941;SDS011;1985;48.592;8.850;2024-02-28T02:16:00;30.33;;;15.20;;
3941;SDS011;1985;48.592;8.850;2024-02-28T02:18:26;29.98;;;15.50;;
3941;SDS011;1985;48.592;8.850;2024-02-28T02:21:00;38.55;;;15.32;;
3941;SDS011;1985;48.592;8.850;2024-02-28T02:23:30;33.83;;;15.80;;
3941;SDS011;1985;48.592;8.850;2024-02-28T02:25:56;33.75;;;15.27;;
3941;SDS011;1985;48.592;8.850;2024-02-28T02:28:22;29.30;;;14.95;;
3941;SDS011;1985;48.592;8.850;2024-02-28T02:30:47;32.23;;;15.37;;
3941;SDS011;1985;48.592;8.850;2024-02-28T02:33:13;29.42;;;14.15;;
3941;SDS011;1985;48.592;8.850;2024-02-28T02:35:39;32.72;;;14.93;;
3941;SDS011;1985;48.592;8.850;2024-02-28T02:38:05;29.98;;;14.45;;
3941;SDS011;1985;48.592;8.850;2024-02-28T02:40:30;33.07;;;15.93;;
3941;SDS011;1985;48.592;8.850;2024-02-28T02:42:56;32.03;;;15.90;;
3941;SDS011;1985;48.592;8.850;2024-02-28T02:45:22;29.77;;;13.90;;
3941;SDS011;1985;48.592;8.850;2024-02-28T02:47:47;32.67;;;16.20;;
3941;SDS011;1985;48.592;8.850;2024-02-28T02:50:13;31.10;;;15.40;;
3941;SDS011;1985;48.592;8.850;2024-02-28T02:52:38;30.02;;;14.60;;
3941;SDS011;1985;48.592;8.850;2024-02-28T02:55:04;25.23;;;12.40;;
3941;SDS011;1985;48.592;8.850;2024-02-28T02:57:31;30.02;;;14.00;;
3941;SDS011;1985;48.592;8.850;2024-02-28T02:59:58;26.70;;;13.68;;
3941;SDS011;1985;48.592;8.850;2024-02-28T03:02:24;29.02;;;14.05;;
3941;SDS011;1985;48.592;8.850;2024-02-28T03:04:49;28.70;;;14.80;;
3941;SDS011;1985;48.592;8.850;2024-02-28T03:07:15;30.30;;;13.98;;
3941;SDS011;1985;48.592;8.850;2024-02-28T03:09:41;30.60;;;15.25;;
3941;SDS011;1985;48.592;8.850;2024-02-28T03:12:07;30.97;;;15.60;;
3941;SDS011;1985;48.592;8.850;2024-02-28T03:14:34;30.42;;;14.23;;
3941;SDS011;1985;48.592;8.850;2024-02-28T03:17:00;33.30;;;14.40;;
3941;SDS011;1985;48.592;8.850;2024-02-28T03:19:26;27.30;;;14.17;;
3941;SDS011;1985;48.592;8.850;2024-02-28T03:21:52;29.20;;;14.43;;
3941;SDS011;1985;48.592;8.850;2024-02-28T03:24:17;28.23;;;14.35;;
3941;SDS011;1985;48.592;8.850;2024-02-28T03:26:43;27.20;;;14.27;;
3941;SDS011;1985;48.592;8.850;2024-02-28T03:29:09;25.13;;;13.05;;
3941;SDS011;1985;48.592;8.850;2024-02-28T03:31:35;28.00;;;13.77;;
3941;SDS011;1985;48.592;8.850;2024-02-28T03:34:00;26.88;;;13.40;;
3941;SDS011;1985;48.592;8.850;2024-02-28T03:36:28;31.47;;;14.37;;
3941;SDS011;1985;48.592;8.850;2024-02-28T03:38:54;28.88;;;14.60;;
3941;SDS011;1985;48.592;8.850;2024-02-28T03:41:19;28.23;;;14.00;;
3941;SDS011;1985;48.592;8.850;2024-02-28T03:43:45;26.43;;;13.93;;
3941;SDS011;1985;48.592;8.850;2024-02-28T03:46:11;31.45;;;14.25;;
3941;SDS011;1985;48.592;8.850;2024-02-28T03:48:36;28.10;;;13.50;;
3941;SDS011;1985;48.592;8.850;2024-02-28T03:51:02;28.33;;;14.65;;
3941;SDS011;1985;48.592;8.850;2024-02-28T03:53:28;27.38;;;14.23;;
3941;SDS011;1985;48.592;8.850;2024-02-28T03:55:53;30.50;;;15.70;;
3941;SDS011;1985;48.592;8.850;2024-02-28T03:58:19;34.30;;;15.85;;
3941;SDS011;1985;48.592;8.850;2024-02-28T04:00:45;32.73;;;15.60;;
3941;SDS011;1985;48.592;8.850;2024-02-28T04:03:11;31.83;;;14.90;;
3941;SDS011;1985;48.592;8.850;2024-02-28T04:05:38;33.15;;;15.80;;
3941;SDS011;1985;48.592;8.850;2024-02-28T04:08:04;34.25;;;15.90;;
3941;SDS011;1985;48.592;8.850;2024-02-28T04:10:30;32.65;;;17.27;;
3941;SDS011;1985;48.592;8.850;2024-02-28T04:12:56;31.70;;;15.30;;
3941;SDS011;1985;48.592;8.850;2024-02-28T04:15:22;33.17;;;16.73;;
3941;SDS011;1985;48.592;8.850;2024-02-28T04:17:50;32.83;;;16.80;;
3941;SDS011;1985;48.592;8.850;2024-02-28T04:20:16;32.53;;;16.47;;
3941;SDS011;1985;48.592;8.850;2024-02-28T04:22:42;34.15;;;15.98;;
3941;SDS011;1985;48.592;8.850;2024-02-28T04:25:08;29.17;;;15.48;;
3941;SDS011;1985;48.592;8.850;2024-02-28T04:27:37;32.20;;;14.75;;
3941;SDS011;1985;48.592;8.850;2024-02-28T04:30:06;35.53;;;16.83;;
3941;SDS011;1985;48.592;8.850;2024-02-28T04:32:32;32.45;;;14.75;;
3941;SDS011;1985;48.592;8.850;2024-02-28T04:34:58;31.05;;;15.70;;
3941;SDS011;1985;48.592;8.850;2024-02-28T04:37:24;31.70;;;14.47;;
3941;SDS011;1985;48.592;8.850;2024-02-28T04:39:49;29.67;;;15.23;;
3941;SDS011;1985;48.592;8.850;2024-02-28T04:42:15;31.03;;;16.00;;
3941;SDS011;1985;48.592;8.850;2024-02-28T04:44:41;33.23;;;16.37;;
3941;SDS011;1985;48.592;8.850;2024-02-28T04:47:07;31.90;;;15.90;;
3941;SDS011;1985;48.592;8.850;2024-02-28T04:49:32;30.75;;;15.60;;
3941;SDS011;1985;48.592;8.850;2024-02-28T04:52:01;33.33;;;16.08;;
3941;SDS011;1985;48.592;8.850;2024-02-28T04:54:27;29.80;;;14.52;;
3941;SDS011;1985;48.592;8.850;2024-02-28T04:56:52;33.83;;;16.40;;
3941;SDS011;1985;48.592;8.850;2024-02-28T04:59:18;33.53;;;15.93;;
3941;SDS011;1985;48.592;8.850;2024-02-28T05:01:43;34.75;;;17.55;;
3941;SDS011;1985;48.592;8.850;2024-02-28T05:04:10;35.42;;;16.13;;
3941;SDS011;1985;48.592;8.850;2024-02-28T05:06:36;34.80;;;16.93;;
3941;SDS011;1985;48.592;8.850;2024-02-28T05:09:02;32.22;;;16.77;;
3941;SDS011;1985;48.592;8.850;2024-02-28T05:11:28;33.58;;;15.30;;
3941;SDS011;1985;48.592;8.850;2024-02-28T05:13:53;30.63;;;15.87;;
3941;SDS011;1985;48.592;8.850;2024-02-28T05:16:19;29.07;;;15.20;;
3941;SDS011;1985;48.592;8.850;2024-02-28T05:18:45;34.65;;;16.85;;
3941;SDS011;1985;48.592;8.850;2024-02-28T05:21:11;29.50;;;15.20;;
3941;SDS011;1985;48.592;8.850;2024-02-28T05:23:37;30.58;;;15.57;;
3941;SDS011;1985;48.592;8.850;2024-02-28T05:26:02;35.93;;;15.73;;
3941;SDS011;1985;48.592;8.850;2024-02-28T05:28:32;32.63;;;15.87;;
3941;SDS011;1985;48.592;8.850;2024-02-28T05:30:59;29.52;;;15.05;;
3941;SDS011;1985;48.592;8.850;2024-02-28T05:33:44;27.88;;;14.75;;
3941;SDS011;1985;48.592;8.850;2024-02-28T05:36:10;30.70;;;14.30;;
3941;SDS011;1985;48.592;8.850;2024-02-28T05:38:35;26.40;;;14.32;;
3941;SDS011;1985;48.592;8.850;2024-02-28T05:41:01;31.70;;;15.40;;
3941;SDS011;1985;48.592;8.850;2024-02-28T05:43:26;28.92;;;13.85;;
3941;SDS011;1985;48.592;8.850;2024-02-28T05:45:52;28.00;;;14.30;;
3941;SDS011;1985;48.592;8.850;2024-02-28T05:48:18;26.90;;;14.77;;
3941;SDS011;1985;48.592;8.850;2024-02-28T05:50:44;32.10;;;16.02;;
3941;SDS011;1985;48.592;8.850;2024-02-28T05:53:09;29.83;;;14.93;;
3941;SDS011;1985;48.592;8.850;2024-02-28T05:55:35;30.53;;;14.50;;
3941;SDS011;1985;48.592;8.850;2024-02-28T05:58:01;28.60;;;14.65;;
3941;SDS011;1985;48.592;8.850;2024-02-28T06:00:26;27.30;;;13.97;;
3941;SDS011;1985;48.592;8.850;2024-02-28T06:02:53;29.10;;;14.50;;
3941;SDS011;1985;48.592;8.850;2024-02-28T06:05:19;28.52;;;14.68;;
3941;SDS011;1985;48.592;8.850;2024-02-28T06:07:44;27.53;;;13.67;;
3941;SDS011;1985;48.592;8.850;2024-02-28T06:10:10;30.30;;;13.25;;
3941;SDS011;1985;48.592;8.850;2024-02-28T06:12:36;26.37;;;13.60;;
3941;SDS011;1985;48.592;8.850;2024-02-28T06:15:02;26.33;;;12.90;;
3941;SDS011;1985;48.592;8.850;2024-02-28T06:17:29;25.77;;;13.93;;
3941;SDS011;1985;48.592;8.850;2024-02-28T06:19:55;26.27;;;13.60;;
3941;SDS011;1985;48.592;8.850;2024-02-28T06:22:20;26.52;;;14.13;;
3941;SDS011;1985;48.592;8.850;2024-02-28T06:24:46;25.10;;;13.40;;
3941;SDS011;1985;48.592;8.850;2024-02-28T06:27:12;28.35;;;13.43;;
3941;SDS011;1985;48.592;8.850;2024-02-28T06:29:41;27.20;;;12.70;;
3941;SDS011;1985;48.592;8.850;2024-02-28T06:32:06;24.80;;;12.50;;
3941;SDS011;1985;48.592;8.850;2024-02-28T06:34:32;26.88;;;13.88;;
3941;SDS011;1985;48.592;8.850;2024-02-28T06:36:58;28.42;;;13.20;;
3941;SDS011;1985;48.592;8.850;2024-02-28T06:39:24;27.47;;;13.33;;
3941;SDS011;1985;48.592;8.850;2024-02-28T06:41:49;27.97;;;13.83;;
3941;SDS011;1985;48.592;8.850;2024-02-28T06:44:17;26.40;;;13.13;;
3941;SDS011;1985;48.592;8.850;2024-02-28T06:46:44;30.17;;;13.80;;
3941;SDS011;1985;48.592;8.850;2024-02-28T06:49:09;29.20;;;13.65;;
3941;SDS011;1985;48.592;8.850;2024-02-28T06:51:35;27.58;;;12.65;;
3941;SDS011;1985;48.592;8.850;2024-02-28T06:54:01;24.45;;;12.10;;
3941;SDS011;1985;48.592;8.850;2024-02-28T06:56:27;27.40;;;13.30;;
3941;SDS011;1985;48.592;8.850;2024-02-28T06:58:52;29.02;;;13.90;;
3941;SDS011;1985;48.592;8.850;2024-02-28T07:01:18;27.03;;;12.90;;
3941;SDS011;1985;48.592;8.850;2024-02-28T07:03:44;28.95;;;13.93;;
3941;SDS011;1985;48.592;8.850;2024-02-28T07:06:11;26.60;;;13.40;;
3941;SDS011;1985;48.592;8.850;2024-02-28T07:08:36;24.98;;;12.32;;
3941;SDS011;1985;48.592;8.850;2024-02-28T07:11:02;26.00;;;12.87;;
3941;SDS011;1985;48.592;8.850;2024-02-28T07:13:28;27.75;;;12.88;;
3941;SDS011;1985;48.592;8.850;2024-02-28T07:15:54;26.58;;;12.32;;
3941;SDS011;1985;48.592;8.850;2024-02-28T07:18:22;29.07;;;12.97;;
3941;SDS011;1985;48.592;8.850;2024-02-28T07:20:50;26.40;;;12.35;;
3941;SDS011;1985;48.592;8.850;2024-02-28T07:23:17;24.95;;;12.38;;
3941;SDS011;1985;48.592;8.850;2024-02-28T07:25:43;23.75;;;12.15;;
3941;SDS011;1985;48.592;8.850;2024-02-28T07:28:08;26.25;;;12.10;;
3941;SDS011;1985;48.592;8.850;2024-02-28T07:30:34;23.07;;;11.57;;
3941;SDS011;1985;48.592;8.850;2024-02-28T07:33:00;25.27;;;11.50;;
3941;SDS011;1985;48.592;8.850;2024-02-28T07:35:26;26.60;;;12.30;;
3941;SDS011;1985;48.592;8.850;2024-02-28T07:37:52;21.08;;;10.88;;
3941;SDS011;1985;48.592;8.850;2024-02-28T07:40:17;23.33;;;11.53;;
3941;SDS011;1985;48.592;8.850;2024-02-28T07:42:43;24.30;;;10.57;;
3941;SDS011;1985;48.592;8.850;2024-02-28T07:45:09;23.05;;;10.65;;
3941;SDS011;1985;48.592;8.850;2024-02-28T07:47:35;23.83;;;11.45;;
3941;SDS011;1985;48.592;8.850;2024-02-28T07:50:01;22.15;;;11.25;;
3941;SDS011;1985;48.592;8.850;2024-02-28T07:52:27;23.95;;;12.23;;
3941;SDS011;1985;48.592;8.850;2024-02-28T07:54:53;24.55;;;11.65;;
3941;SDS011;1985;48.592;8.850;2024-02-28T07:57:18;23.93;;;11.20;;
3941;SDS011;1985;48.592;8.850;2024-02-28T07:59:44;24.40;;;11.70;;
3941;SDS011;1985;48.592;8.850;2024-02-28T08:02:10;21.53;;;10.90;;
3941;SDS011;1985;48.592;8.850;2024-02-28T08:04:38;22.35;;;10.90;;
3941;SDS011;1985;48.592;8.850;2024-02-28T08:07:04;20.58;;;9.88;;
3941;SDS011;1985;48.592;8.850;2024-02-28T08:09:30;23.65;;;10.70;;
3941;SDS011;1985;48.592;8.850;2024-02-28T08:11:56;22.10;;;11.27;;
3941;SDS011;1985;48.592;8.850;2024-02-28T08:14:23;20.30;;;9.87;;
3941;SDS011;1985;48.592;8.850;2024-02-28T08:16:49;21.83;;;9.70;;
3941;SDS011;1985;48.592;8.850;2024-02-28T08:19:15;25.10;;;11.15;;
3941;SDS011;1985;48.592;8.850;2024-02-28T08:21:42;22.23;;;10.68;;
3941;SDS011;1985;48.592;8.850;2024-02-28T08:24:08;22.93;;;11.30;;
3941;SDS011;1985;48.592;8.850;2024-02-28T08:26:34;23.87;;;11.30;;
3941;SDS011;1985;48.592;8.850;2024-02-28T08:29:00;22.77;;;10.80;;
3941;SDS011;1985;48.592;8.850;2024-02-28T08:31:27;24.15;;;10.90;;
3941;SDS011;1985;48.592;8.850;2024-02-28T08:33:53;22.52;;;11.20;;
3941;SDS011;1985;48.592;8.850;2024-02-28T08:36:20;23.40;;;11.15;;
3941;SDS011;1985;48.592;8.850;2024-02-28T08:38:46;23.92;;;10.57;;
3941;SDS011;1985;48.592;8.850;2024-02-28T08:41:12;23.48;;;10.73;;
3941;SDS011;1985;48.592;8.850;2024-02-28T08:43:38;23.80;;;10.40;;
3941;SDS011;1985;48.592;8.850;2024-02-28T08:46:05;20.27;;;9.47;;
3941;SDS011;1985;48.592;8.850;2024-02-28T08:48:31;22.00;;;9.77;;
3941;SDS011;1985;48.592;8.850;2024-02-28T08:50:59;22.88;;;10.73;;
3941;SDS011;1985;48.592;8.850;2024-02-28T08:53:25;20.83;;;10.20;;
3941;SDS011;1985;48.592;8.850;2024-02-28T08:55:51;21.80;;;10.10;;
3941;SDS011;1985;48.592;8.850;2024-02-28T08:58:17;21.43;;;9.73;;
3941;SDS011;1985;48.592;8.850;2024-02-28T09:00:43;22.65;;;11.70;;
3941;SDS011;1985;48.592;8.850;2024-02-28T09:03:08;19.83;;;10.17;;
3941;SDS011;1985;48.592;8.850;2024-02-28T09:05:34;21.50;;;10.55;;
3941;SDS011;1985;48.592;8.850;2024-02-28T09:08:00;20.87;;;9.77;;
3941;SDS011;1985;48.592;8.850;2024-02-28T09:10:27;23.73;;;10.90;;
3941;SDS011;1985;48.592;8.850;2024-02-28T09:12:53;21.20;;;10.05;;
3941;SDS011;1985;48.592;8.850;2024-02-28T09:15:19;20.08;;;9.35;;
3941;SDS011;1985;48.592;8.850;2024-02-28T09:17:45;20.75;;;10.00;;
3941;SDS011;1985;48.592;8.850;2024-02-28T09:20:11;21.67;;;10.80;;
3941;SDS011;1985;48.592;8.850;2024-02-28T09:22:37;22.92;;;10.43;;
3941;SDS011;1985;48.592;8.850;2024-02-28T09:25:03;23.60;;;10.73;;
3941;SDS011;1985;48.592;8.850;2024-02-28T09:27:30;19.47;;;9.50;;
3941;SDS011;1985;48.592;8.850;2024-02-28T09:29:55;24.15;;;10.95;;
3941;SDS011;1985;48.592;8.850;2024-02-28T09:32:21;21.93;;;10.50;;
3941;SDS011;1985;48.592;8.850;2024-02-28T09:34:48;21.48;;;10.43;;
3941;SDS011;1985;48.592;8.850;2024-02-28T09:37:14;20.07;;;9.80;;
3941;SDS011;1985;48.592;8.850;2024-02-28T09:39:40;21.50;;;10.05;;
3941;SDS011;1985;48.592;8.850;2024-02-28T09:42:06;20.70;;;9.80;;
3941;SDS011;1985;48.592;8.850;2024-02-28T09:44:36;19.70;;;9.77;;
3941;SDS011;1985;48.592;8.850;2024-02-28T09:47:02;21.73;;;10.18;;
3941;SDS011;1985;48.592;8.850;2024-02-28T09:49:28;24.93;;;10.70;;
3941;SDS011;1985;48.592;8.850;2024-02-28T09:51:58;20.85;;;10.32;;
3941;SDS011;1985;48.592;8.850;2024-02-28T09:54:24;21.52;;;10.30;;
3941;SDS011;1985;48.592;8.850;2024-02-28T09:56:51;22.63;;;9.75;;
3941;SDS011;1985;48.592;8.850;2024-02-28T09:59:19;20.45;;;9.82;;
3941;SDS011;1985;48.592;8.850;2024-02-28T10:01:47;21.08;;;9.68;;
3941;SDS011;1985;48.592;8.850;2024-02-28T10:04:20;20.65;;;9.30;;
3941;SDS011;1985;48.592;8.850;2024-02-28T10:06:47;23.15;;;11.05;;
3941;SDS011;1985;48.592;8.850;2024-02-28T10:09:15;22.15;;;9.73;;
3941;SDS011;1985;48.592;8.850;2024-02-28T10:11:41;21.45;;;9.68;;
3941;SDS011;1985;48.592;8.850;2024-02-28T10:14:08;24.52;;;10.82;;
3941;SDS011;1985;48.592;8.850;2024-02-28T10:16:34;21.35;;;10.95;;
3941;SDS011;1985;48.592;8.850;2024-02-28T10:19:00;21.90;;;11.37;;
3941;SDS011;1985;48.592;8.850;2024-02-28T10:21:25;22.40;;;10.93;;
3941;SDS011;1985;48.592;8.850;2024-02-28T10:23:51;21.80;;;10.43;;
3941;SDS011;1985;48.592;8.850;2024-02-28T10:26:17;23.30;;;10.33;;
3941;SDS011;1985;48.592;8.850;2024-02-28T10:28:43;21.70;;;9.98;;
3941;SDS011;1985;48.592;8.850;2024-02-28T10:31:11;19.90;;;9.00;;
3941;SDS011;1985;48.592;8.850;2024-02-28T10:33:37;21.40;;;9.95;;
3941;SDS011;1985;48.592;8.850;2024-02-28T10:36:03;18.70;;;9.07;;
3941;SDS011;1985;48.592;8.850;2024-02-28T10:38:30;20.92;;;10.20;;
3941;SDS011;1985;48.592;8.850;2024-02-28T10:40:58;18.52;;;9.88;;
3941;SDS011;1985;48.592;8.850;2024-02-28T10:43:28;22.48;;;10.80;;
3941;SDS011;1985;48.592;8.850;2024-02-28T10:45:57;19.77;;;10.20;;
3941;SDS011;1985;48.592;8.850;2024-02-28T10:48:26;21.70;;;10.07;;
3941;SDS011;1985;48.592;8.850;2024-02-28T10:50:53;21.80;;;10.25;;
3941;SDS011;1985;48.592;8.850;2024-02-28T10:53:31;22.10;;;10.25;;
3941;SDS011;1985;48.592;8.850;2024-02-28T10:56:02;19.70;;;9.93;;
3941;SDS011;1985;48.592;8.850;2024-02-28T10:58:33;21.15;;;10.55;;
3941;SDS011;1985;48.592;8.850;2024-02-28T11:01:01;20.98;;;10.43;;
3941;SDS011;1985;48.592;8.850;2024-02-28T11:03:28;23.40;;;10.05;;
3941;SDS011;1985;48.592;8.850;2024-02-28T11:05:55;21.73;;;10.50;;
3941;SDS011;1985;48.592;8.850;2024-02-28T11:08:26;23.23;;;10.80;;
3941;SDS011;1985;48.592;8.850;2024-02-28T11:10:56;21.33;;;10.65;;
3941;SDS011;1985;48.592;8.850;2024-02-28T11:13:33;23.75;;;10.10;;
3941;SDS011;1985;48.592;8.850;2024-02-28T11:16:08;20.60;;;9.85;;
3941;SDS011;1985;48.592;8.850;2024-02-28T11:18:34;22.03;;;9.10;;
3941;SDS011;1985;48.592;8.850;2024-02-28T11:21:00;20.92;;;9.85;;
3941;SDS011;1985;48.592;8.850;2024-02-28T11:23:35;23.67;;;10.57;;
3941;SDS011;1985;48.592;8.850;2024-02-28T11:26:02;23.38;;;11.07;;
3941;SDS011;1985;48.592;8.850;2024-02-28T11:28:28;23.58;;;10.43;;
3941;SDS011;1985;48.592;8.850;2024-02-28T11:30:54;21.67;;;10.50;;
3941;SDS011;1985;48.592;8.850;2024-02-28T11:33:20;21.23;;;11.02;;
3941;SDS011;1985;48.592;8.850;2024-02-28T11:35:53;25.57;;;11.53;;
3941;SDS011;1985;48.592;8.850;2024-02-28T11:38:24;21.65;;;10.93;;
3941;SDS011;1985;48.592;8.850;2024-02-28T11:40:53;23.35;;;11.75;;
3941;SDS011;1985;48.592;8.850;2024-02-28T11:43:20;20.30;;;10.27;;
3941;SDS011;1985;48.592;8.850;2024-02-28T11:45:46;21.70;;;9.57;;
3941;SDS011;1985;48.592;8.850;2024-02-28T11:48:12;21.13;;;10.23;;
3941;SDS011;1985;48.592;8.850;2024-02-28T11:50:39;21.92;;;10.90;;
3941;SDS011;1985;48.592;8.850;2024-02-28T11:53:06;25.40;;;10.82;;
3941;SDS011;1985;48.592;8.850;2024-02-28T11:55:34;21.90;;;10.00;;
3941;SDS011;1985;48.592;8.850;2024-02-28T11:58:01;23.00;;;10.02;;
3941;SDS011;1985;48.592;8.850;2024-02-28T12:00:27;23.48;;;11.70;;
3941;SDS011;1985;48.592;8.850;2024-02-28T12:02:52;21.58;;;10.20;;
3941;SDS011;1985;48.592;8.850;2024-02-28T12:05:30;23.83;;;11.40;;
3941;SDS011;1985;48.592;8.850;2024-02-28T12:07:55;21.80;;;10.60;;
3941;SDS011;1985;48.592;8.850;2024-02-28T12:10:23;22.73;;;10.10;;
3941;SDS011;1985;48.592;8.850;2024-02-28T12:12:49;22.50;;;11.00;;
3941;SDS011;1985;48.592;8.850;2024-02-28T12:15:15;24.45;;;10.57;;
3941;SDS011;1985;48.592;8.850;2024-02-28T12:17:42;25.27;;;11.20;;
3941;SDS011;1985;48.592;8.850;2024-02-28T12:20:08;22.88;;;11.38;;
3941;SDS011;1985;48.592;8.850;2024-02-28T12:22:34;25.02;;;11.50;;
3941;SDS011;1985;48.592;8.850;2024-02-28T12:24:59;25.00;;;11.75;;
3941;SDS011;1985;48.592;8.850;2024-02-28T12:27:29;20.40;;;10.70;;
3941;SDS011;1985;48.592;8.850;2024-02-28T12:29:56;23.55;;;11.45;;
3941;SDS011;1985;48.592;8.850;2024-02-28T12:32:22;25.70;;;11.57;;
3941;SDS011;1985;48.592;8.850;2024-02-28T12:34:47;23.65;;;10.88;;
3941;SDS011;1985;48.592;8.850;2024-02-28T12:37:13;23.13;;;11.47;;
3941;SDS011;1985;48.592;8.850;2024-02-28T12:39:39;23.15;;;11.10;;
3941;SDS011;1985;48.592;8.850;2024-02-28T12:42:04;24.00;;;10.95;;
3941;SDS011;1985;48.592;8.850;2024-02-28T12:44:32;22.73;;;10.88;;
3941;SDS011;1985;48.592;8.850;2024-02-28T12:46:57;25.20;;;11.50;;
3941;SDS011;1985;48.592;8.850;2024-02-28T12:49:23;23.83;;;11.30;;
3941;SDS011;1985;48.592;8.850;2024-02-28T12:51:48;20.70;;;10.20;;
3941;SDS011;1985;48.592;8.850;2024-02-28T12:54:16;22.52;;;10.10;;
3941;SDS011;1985;48.592;8.850;2024-02-28T12:56:43;22.70;;;9.82;;
3941;SDS011;1985;48.592;8.850;2024-02-28T12:59:09;23.00;;;11.00;;
3941;SDS011;1985;48.592;8.850;2024-02-28T13:01:35;24.37;;;12.97;;
3941;SDS011;1985;48.592;8.850;2024-02-28T13:04:01;24.73;;;11.40;;
3941;SDS011;1985;48.592;8.850;2024-02-28T13:06:27;24.43;;;11.60;;
3941;SDS011;1985;48.592;8.850;2024-02-28T13:08:53;22.40;;;10.95;;
3941;SDS011;1985;48.592;8.850;2024-02-28T13:11:20;25.53;;;13.20;;
3941;SDS011;1985;48.592;8.850;2024-02-28T13:13:47;28.83;;;14.93;;
3941;SDS011;1985;48.592;8.850;2024-02-28T13:16:14;21.42;;;10.48;;
3941;SDS011;1985;48.592;8.850;2024-02-28T13:18:43;26.60;;;14.23;;
3941;SDS011;1985;48.592;8.850;2024-02-28T13:21:10;30.77;;;13.43;;
3941;SDS011;1985;48.592;8.850;2024-02-28T13:23:36;23.15;;;11.77;;
3941;SDS011;1985;48.592;8.850;2024-02-28T13:26:02;22.85;;;10.80;;
3941;SDS011;1985;48.592;8.850;2024-02-28T13:28:32;26.45;;;12.68;;
3941;SDS011;1985;48.592;8.850;2024-02-28T13:30:58;24.08;;;11.15;;
3941;SDS011;1985;48.592;8.850;2024-02-28T13:33:25;26.50;;;12.50;;
3941;SDS011;1985;48.592;8.850;2024-02-28T13:35:52;29.02;;;12.20;;
3941;SDS011;1985;48.592;8.850;2024-02-28T13:38:18;23.60;;;11.80;;
3941;SDS011;1985;48.592;8.850;2024-02-28T13:40:48;25.20;;;12.68;;
3941;SDS011;1985;48.592;8.850;2024-02-28T13:43:15;27.45;;;12.70;;
3941;SDS011;1985;48.592;8.850;2024-02-28T13:45:45;31.00;;;13.68;;
3941;SDS011;1985;48.592;8.850;2024-02-28T13:48:18;24.27;;;12.60;;
3941;SDS011;1985;48.592;8.850;2024-02-28T13:50:56;24.73;;;12.52;;
3941;SDS011;1985;48.592;8.850;2024-02-28T13:53:22;21.33;;;10.40;;
3941;SDS011;1985;48.592;8.850;2024-02-28T13:55:49;25.10;;;11.10;;
3941;SDS011;1985;48.592;8.850;2024-02-28T13:58:15;37.00;;;17.77;;
3941;SDS011;1985;48.592;8.850;2024-02-28T14:00:43;23.40;;;12.10;;
3941;SDS011;1985;48.592;8.850;2024-02-28T14:03:12;26.20;;;11.77;;
3941;SDS011;1985;48.592;8.850;2024-02-28T14:05:41;25.95;;;11.25;;
3941;SDS011;1985;48.592;8.850;2024-02-28T14:08:07;25.23;;;11.63;;
3941;SDS011;1985;48.592;8.850;2024-02-28T14:10:34;24.08;;;11.50;;
3941;SDS011;1985;48.592;8.850;2024-02-28T14:13:00;25.17;;;13.00;;
3941;SDS011;1985;48.592;8.850;2024-02-28T14:15:26;31.65;;;15.93;;
3941;SDS011;1985;48.592;8.850;2024-02-28T14:17:52;32.43;;;14.83;;
3941;SDS011;1985;48.592;8.850;2024-02-28T14:20:18;26.53;;;12.67;;
3941;SDS011;1985;48.592;8.850;2024-02-28T14:22:43;24.38;;;12.25;;
3941;SDS011;1985;48.592;8.850;2024-02-28T14:25:16;23.80;;;11.77;;
3941;SDS011;1985;48.592;8.850;2024-02-28T14:27:44;26.40;;;12.33;;
3941;SDS011;1985;48.592;8.850;2024-02-28T14:30:10;26.98;;;12.40;;
3941;SDS011;1985;48.592;8.850;2024-02-28T14:32:37;24.83;;;12.55;;
3941;SDS011;1985;48.592;8.850;2024-02-28T14:35:06;28.73;;;13.02;;
3941;SDS011;1985;48.592;8.850;2024-02-28T14:37:36;26.98;;;13.60;;
3941;SDS011;1985;48.592;8.850;2024-02-28T14:40:04;31.23;;;14.38;;
3941;SDS011;1985;48.592;8.850;2024-02-28T14:42:34;27.00;;;12.65;;
3941;SDS011;1985;48.592;8.850;2024-02-28T14:45:00;36.65;;;19.50;;